createdAt,value
2023-04-18T00:01:30.663Z,68.27
2023-04-18T00:03:58.063Z,68.71
2023-04-18T00:06:26.907Z,68.50
2023-04-18T00:08:54.478Z,68.75
2023-04-18T00:11:21.666Z,68.66
2023-04-18T00:13:50.505Z,68.54
2023-04-18T00:16:17.561Z,68.59
2023-04-18T00:18:44.894Z,68.53
2023-04-18T00:21:13.502Z,68.44
2023-04-18T00:23:41.757Z,68.62
2023-04-18T00:26:08.803Z,68.67
2023-04-18T00:28:36.148Z,68.67
2023-04-18T00:31:05.252Z,68.48
2023-04-18T00:33:32.751Z,68.71
2023-04-18T00:35:59.599Z,68.54
2023-04-18T00:38:26.954Z,68.61
2023-04-18T00:40:54.064Z,68.73
2023-04-18T00:43:23.406Z,68.74
2023-04-18T00:45:50.944Z,68.44
2023-04-18T00:48:20.629Z,68.66
2023-04-18T00:50:47.547Z,68.71
2023-04-18T00:53:15.647Z,68.79
2023-04-18T00:55:42.725Z,68.55
2023-04-18T00:58:10.228Z,68.69
2023-04-18T01:00:37.461Z,68.75
2023-04-18T01:03:04.785Z,68.81
2023-04-18T01:05:34.953Z,68.63
2023-04-18T01:08:03.006Z,68.58
2023-04-18T01:10:31.192Z,68.49
2023-04-18T01:13:12.450Z,68.75
2023-04-18T01:15:41.578Z,68.69
2023-04-18T01:18:09.237Z,68.73
2023-04-18T01:20:41.500Z,68.92
2023-04-18T01:23:10.559Z,68.67
2023-04-18T01:25:39.183Z,68.77
2023-04-18T01:28:06.720Z,68.86
2023-04-18T01:30:34.642Z,68.86
2023-04-18T01:33:02.501Z,68.82
2023-04-18T01:35:30.059Z,68.74
2023-04-18T01:37:57.810Z,68.79
2023-04-18T01:40:25.148Z,68.83
2023-04-18T01:42:53.941Z,68.75
2023-04-18T01:45:20.964Z,69.24
2023-04-18T01:47:48.405Z,69.04
2023-04-18T01:50:15.348Z,69.23
2023-04-18T01:52:42.727Z,68.95
2023-04-18T01:55:10.531Z,69.28
2023-04-18T01:57:38.218Z,69.45
2023-04-18T02:00:08.199Z,69.51
2023-04-18T02:02:35.800Z,69.29
2023-04-18T02:05:03.021Z,69.51
2023-04-18T02:07:30.357Z,69.70
2023-04-18T02:09:57.289Z,69.49
2023-04-18T02:12:24.681Z,69.62
2023-04-18T02:14:56.278Z,69.51
2023-04-18T02:17:33.279Z,69.48
2023-04-18T02:20:00.644Z,69.60
2023-04-18T02:22:27.996Z,69.78
2023-04-18T02:24:54.980Z,69.44
2023-04-18T02:27:22.274Z,69.49
2023-04-18T02:29:49.345Z,69.59
2023-04-18T02:32:16.689Z,69.45
2023-04-18T02:34:45.036Z,69.49
2023-04-18T02:37:12.212Z,69.58
2023-04-18T02:39:39.251Z,69.36
2023-04-18T02:42:07.134Z,69.70
2023-04-18T02:44:34.390Z,69.73
2023-04-18T02:47:01.862Z,69.60
2023-04-18T02:49:28.802Z,69.42
2023-04-18T02:51:57.402Z,69.48
2023-04-18T02:54:24.907Z,69.45
2023-04-18T02:56:54.055Z,69.42
2023-04-18T02:59:21.127Z,69.77
2023-04-18T03:01:48.441Z,69.33
2023-04-18T03:04:15.880Z,69.49
2023-04-18T03:06:43.525Z,69.04
2023-04-18T03:09:11.800Z,69.40
2023-04-18T03:11:39.131Z,69.54
2023-04-18T03:14:06.116Z,69.60
2023-04-18T03:16:33.708Z,69.97
2023-04-18T03:19:01.559Z,69.90
2023-04-18T03:21:28.732Z,69.47
2023-04-18T03:23:55.756Z,69.88
2023-04-18T03:26:25.261Z,69.92
2023-04-18T03:28:52.269Z,70.35
2023-04-18T03:31:19.620Z,70.42
2023-04-18T03:33:47.075Z,70.63
2023-04-18T03:36:18.583Z,70.17
2023-04-18T03:38:45.512Z,70.28
2023-04-18T03:41:12.892Z,70.05
2023-04-18T03:43:41.365Z,69.48
2023-04-18T03:46:08.662Z,69.90
2023-04-18T03:48:37.358Z,69.58
2023-04-18T03:51:05.925Z,70.25
2023-04-18T03:53:33.051Z,70.16
2023-04-18T03:56:00.297Z,70.04
2023-04-18T03:58:27.227Z,69.86
2023-04-18T04:00:55.909Z,70.52
2023-04-18T04:03:22.972Z,70.72
2023-04-18T04:05:50.538Z,70.26
2023-04-18T04:08:17.677Z,70.60
2023-04-18T04:10:44.987Z,70.37
2023-04-18T04:13:12.018Z,70.95
2023-04-18T04:15:39.199Z,71.00
2023-04-18T04:18:08.981Z,70.95
2023-04-18T04:20:36.310Z,70.79
2023-04-18T04:23:03.346Z,70.68
2023-04-18T04:25:30.708Z,70.58
2023-04-18T04:27:57.727Z,70.35
2023-04-18T04:30:24.960Z,70.08
2023-04-18T04:32:52.154Z,70.33
2023-04-18T04:35:20.927Z,70.06
2023-04-18T04:37:48.344Z,70.06
2023-04-18T04:40:15.712Z,70.02
2023-04-18T04:42:42.714Z,69.67
2023-04-18T04:45:10.742Z,69.95
2023-04-18T04:47:37.946Z,70.04
2023-04-18T04:50:07.790Z,69.94
2023-04-18T04:52:36.584Z,70.01
2023-04-18T04:55:04.170Z,70.21
2023-04-18T04:57:31.114Z,70.07
2023-04-18T04:59:58.296Z,69.89
2023-04-18T05:02:25.522Z,70.41
2023-04-18T05:04:53.053Z,70.52
2023-04-18T05:07:20.161Z,70.30
2023-04-18T05:09:49.588Z,70.05
2023-04-18T05:12:16.696Z,70.03
2023-04-18T05:14:44.358Z,69.61
2023-04-18T05:17:11.274Z,70.05
2023-04-18T05:19:38.522Z,70.23
2023-04-18T05:22:05.518Z,70.36
2023-04-18T05:24:32.746Z,70.07
2023-04-18T05:27:01.891Z,70.08
2023-04-18T05:29:29.243Z,70.53
2023-04-18T05:31:56.205Z,70.67
2023-04-18T05:34:23.713Z,70.19
2023-04-18T05:36:51.050Z,70.30
2023-04-18T05:39:18.115Z,70.37
2023-04-18T05:41:45.144Z,70.26
2023-04-18T05:44:13.734Z,70.06
2023-04-18T05:46:41.584Z,70.25
2023-04-18T05:49:09.025Z,70.21
2023-04-18T05:51:36.109Z,70.00
2023-04-18T05:54:04.352Z,70.19
2023-04-18T05:56:31.441Z,70.11
2023-04-18T05:58:58.790Z,70.00
2023-04-18T06:01:27.582Z,70.09
2023-04-18T06:03:55.637Z,69.77
2023-04-18T06:06:23.022Z,69.68
2023-04-18T06:08:50.573Z,69.93
2023-04-18T06:11:20.118Z,69.38
2023-04-18T06:13:47.540Z,69.12
2023-04-18T06:16:14.730Z,69.29
2023-04-18T06:18:43.447Z,69.05
2023-04-18T06:21:10.604Z,68.90
2023-04-18T06:23:38.559Z,68.82
2023-04-18T06:26:07.206Z,68.43
2023-04-18T06:28:34.451Z,68.17
2023-04-18T06:31:01.500Z,68.36
2023-04-18T06:33:29.087Z,68.51
2023-04-18T06:35:58.137Z,68.35
2023-04-18T06:38:25.459Z,68.29
2023-04-18T06:40:52.784Z,67.99
2023-04-18T06:43:21.991Z,67.73
2023-04-18T06:45:49.286Z,67.47
2023-04-18T06:48:16.652Z,67.16
2023-04-18T06:50:43.954Z,67.23
2023-04-18T06:53:12.962Z,67.02
2023-04-18T06:55:40.818Z,66.99
2023-04-18T06:58:09.694Z,66.73
2023-04-18T07:00:36.840Z,66.44
2023-04-18T07:03:11.385Z,66.23
2023-04-18T07:05:39.139Z,66.34
2023-04-18T07:08:06.641Z,66.07
2023-04-18T07:10:35.286Z,65.54
2023-04-18T07:13:03.153Z,65.02
2023-04-18T07:15:30.195Z,65.14
2023-04-18T07:17:57.938Z,65.15
2023-04-18T07:20:26.803Z,64.16
2023-04-18T07:22:54.256Z,64.34
2023-04-18T07:25:21.328Z,63.77
2023-04-18T07:27:50.705Z,63.20
2023-04-18T07:30:17.784Z,62.79
2023-04-18T07:32:45.214Z,62.56
2023-04-18T07:35:12.304Z,61.71
2023-04-18T07:37:39.751Z,61.30
2023-04-18T07:40:08.604Z,59.44
2023-04-18T07:42:35.947Z,60.29
2023-04-18T07:45:07.002Z,60.61
2023-04-18T07:47:34.453Z,60.98
2023-04-18T07:50:02.028Z,61.03
2023-04-18T07:52:29.231Z,61.15
2023-04-18T07:54:56.237Z,60.98
2023-04-18T07:57:23.622Z,60.90
2023-04-18T07:59:53.782Z,61.81
2023-04-18T08:02:22.600Z,60.97
2023-04-18T08:04:50.034Z,61.13
2023-04-18T08:07:17.698Z,61.19
2023-04-18T08:09:44.589Z,61.64
2023-04-18T08:12:12.020Z,61.11
2023-04-18T08:14:39.137Z,60.63
2023-04-18T08:17:06.448Z,60.12
2023-04-18T08:19:35.609Z,59.86
2023-04-18T08:22:10.656Z,59.77
2023-04-18T08:24:38.735Z,56.75
2023-04-18T08:27:06.174Z,54.18
2023-04-18T08:29:33.822Z,53.40
2023-04-18T08:32:01.352Z,52.20
2023-04-18T08:34:29.375Z,50.30
2023-04-18T08:36:58.157Z,45.53
2023-04-18T08:39:25.429Z,44.97
2023-04-18T08:41:59.143Z,45.19
2023-04-18T08:44:28.660Z,46.66
2023-04-18T08:46:56.249Z,45.93
2023-04-18T08:49:24.952Z,45.18
2023-04-18T08:51:52.452Z,45.10
2023-04-18T08:54:23.348Z,44.67
2023-04-18T08:57:06.563Z,45.21
2023-04-18T08:59:35.733Z,45.02
2023-04-18T09:02:06.771Z,44.35
2023-04-18T09:04:38.942Z,44.42
2023-04-18T09:07:10.108Z,40.11
2023-04-18T09:09:44.293Z,39.71
2023-04-18T09:12:14.833Z,40.18
2023-04-18T09:14:46.821Z,41.41
2023-04-18T09:17:18.410Z,40.05
2023-04-18T09:19:49.116Z,38.33
2023-04-18T09:22:17.101Z,38.99
2023-04-18T09:24:55.514Z,39.05
2023-04-18T09:27:23.155Z,38.11
2023-04-18T09:29:52.159Z,37.28
2023-04-18T09:32:29.180Z,38.20
2023-04-18T09:34:58.686Z,37.33
2023-04-18T09:37:26.508Z,37.25
2023-04-18T09:39:55.715Z,36.41
2023-04-18T09:42:23.115Z,37.34
2023-04-18T09:45:03.616Z,37.76
2023-04-18T09:47:31.511Z,35.96
2023-04-18T09:49:58.605Z,36.26
2023-04-18T09:52:26.361Z,37.27
2023-04-18T09:54:58.641Z,36.93
2023-04-18T09:57:31.948Z,36.24
2023-04-18T10:00:10.683Z,36.87
2023-04-18T10:02:49.875Z,37.90
2023-04-18T10:05:20.784Z,35.73
2023-04-18T10:07:49.985Z,36.65
2023-04-18T10:10:18.728Z,36.55
2023-04-18T10:12:48.246Z,36.37
2023-04-18T10:15:16.939Z,35.90
2023-04-18T10:18:02.653Z,35.86
2023-04-18T10:20:32.821Z,35.49
2023-04-18T10:23:36.580Z,35.10
2023-04-18T10:26:05.531Z,35.95
2023-04-18T10:28:53.757Z,36.13
2023-04-18T10:31:22.473Z,41.19
2023-04-18T10:34:03.881Z,43.37
2023-04-18T10:37:03.541Z,44.91
2023-04-18T10:39:31.432Z,45.15
2023-04-18T10:41:59.988Z,46.33
2023-04-18T10:44:27.640Z,46.02
2023-04-18T10:47:20.228Z,45.93
2023-04-18T10:49:58.824Z,45.96
2023-04-18T10:52:27.299Z,45.15
2023-04-18T10:54:59.212Z,44.97
2023-04-18T10:57:37.861Z,44.90
2023-04-18T11:00:07.073Z,44.11
2023-04-18T11:02:34.246Z,43.58
2023-04-18T11:05:07.463Z,43.66
2023-04-18T11:07:37.021Z,44.79
2023-04-18T11:10:06.295Z,44.16
2023-04-18T11:12:37.202Z,44.59
2023-04-18T11:15:10.849Z,44.58
2023-04-18T11:17:40.349Z,43.15
2023-04-18T11:20:11.232Z,43.80
2023-04-18T11:22:46.737Z,43.94
2023-04-18T11:25:14.412Z,43.88
2023-04-18T11:27:44.076Z,43.19
2023-04-18T11:30:14.068Z,43.34
2023-04-18T11:32:41.444Z,42.86
2023-04-18T11:35:10.679Z,41.55
2023-04-18T11:37:39.104Z,42.30
2023-04-18T11:40:09.516Z,43.76
2023-04-18T11:42:38.914Z,44.54
2023-04-18T11:45:12.309Z,45.05
2023-04-18T11:47:41.950Z,45.93
2023-04-18T11:50:10.913Z,46.49
2023-04-18T11:52:39.841Z,46.47
2023-04-18T11:55:17.613Z,46.01
2023-04-18T11:57:52.370Z,45.80
2023-04-18T12:00:32.516Z,45.33
2023-04-18T12:03:01.981Z,44.50
2023-04-18T12:05:30.921Z,44.65
2023-04-18T12:08:05.871Z,44.66
2023-04-18T12:10:33.482Z,44.22
2023-04-18T12:13:00.731Z,44.55
2023-04-18T12:15:30.290Z,45.00
2023-04-18T12:17:59.866Z,44.64
2023-04-18T12:20:34.891Z,43.44
2023-04-18T12:23:03.509Z,44.38
2023-04-18T12:25:30.707Z,44.49
2023-04-18T12:27:59.120Z,44.31
2023-04-18T12:30:27.364Z,43.12
2023-04-18T12:32:59.474Z,43.95
2023-04-18T12:35:27.941Z,43.79
2023-04-18T12:37:56.695Z,44.22
2023-04-18T12:40:26.460Z,44.49
2023-04-18T12:42:54.778Z,44.28
2023-04-18T12:45:23.273Z,44.09
2023-04-18T12:47:51.863Z,43.93
2023-04-18T12:50:22.247Z,43.46
2023-04-18T12:52:51.393Z,44.25
2023-04-18T12:55:19.104Z,44.84
2023-04-18T12:57:46.326Z,44.67
2023-04-18T13:00:14.918Z,44.60
2023-04-18T13:02:44.184Z,44.39
2023-04-18T13:05:12.986Z,44.92
2023-04-18T13:07:42.540Z,45.25
2023-04-18T13:10:11.989Z,45.09
2023-04-18T13:12:39.838Z,44.80
2023-04-18T13:15:08.359Z,44.36
2023-04-18T13:17:38.401Z,44.41
2023-04-18T13:20:08.996Z,44.72
2023-04-18T13:22:36.174Z,44.12
2023-04-18T13:25:05.882Z,44.50
2023-04-18T13:27:33.575Z,43.78
2023-04-18T13:30:01.259Z,44.44
2023-04-18T13:32:28.621Z,45.06
2023-04-18T13:34:56.450Z,44.64
2023-04-18T13:37:23.989Z,44.95
2023-04-18T13:39:51.473Z,45.08
2023-04-18T13:42:20.625Z,45.19
2023-04-18T13:44:48.355Z,44.32
2023-04-18T13:47:15.753Z,44.48
2023-04-18T13:49:43.009Z,44.49
2023-04-18T13:52:10.220Z,44.83
2023-04-18T13:54:37.784Z,45.10
2023-04-18T13:57:15.430Z,45.38
2023-04-18T13:59:44.271Z,45.93
2023-04-18T14:02:11.274Z,45.81
2023-04-18T14:04:39.031Z,46.51
2023-04-18T14:07:09.272Z,46.76
2023-04-18T14:09:36.552Z,46.67
2023-04-18T14:12:03.959Z,46.00
2023-04-18T14:14:31.427Z,45.87
2023-04-18T14:16:59.869Z,46.43
2023-04-18T14:19:27.328Z,47.03
2023-04-18T14:21:54.570Z,47.25
2023-04-18T14:24:21.962Z,47.27
2023-04-18T14:26:49.044Z,47.46
2023-04-18T14:29:16.749Z,47.41
2023-04-18T14:31:44.055Z,48.15
2023-04-18T14:34:13.297Z,47.98
2023-04-18T14:36:40.863Z,48.10
2023-04-18T14:39:08.358Z,47.32
2023-04-18T14:41:35.864Z,46.81
2023-04-18T14:44:04.211Z,46.57
2023-04-18T14:46:31.433Z,45.69
2023-04-18T14:48:58.764Z,46.08
2023-04-18T14:51:27.669Z,46.24
2023-04-18T14:53:55.613Z,46.41
2023-04-18T14:56:24.265Z,46.33
2023-04-18T14:58:51.317Z,46.46
2023-04-18T15:01:18.587Z,46.05
2023-04-18T15:03:46.410Z,44.74
2023-04-18T15:06:13.537Z,45.14
2023-04-18T15:08:44.119Z,45.80
2023-04-18T15:11:11.303Z,46.15
2023-04-18T15:13:40.026Z,46.76
2023-04-18T15:16:07.796Z,47.05
2023-04-18T15:18:35.291Z,47.06
2023-04-18T15:21:02.316Z,47.29
2023-04-18T15:23:29.700Z,47.43
2023-04-18T15:25:59.425Z,47.39
2023-04-18T15:28:26.852Z,47.52
2023-04-18T15:30:53.974Z,47.70
2023-04-18T15:33:21.808Z,47.53
2023-04-18T15:35:48.903Z,47.36
2023-04-18T15:38:16.192Z,46.96
2023-04-18T15:40:46.101Z,47.13
2023-04-18T15:43:17.138Z,48.30
2023-04-18T15:45:44.679Z,49.02
2023-04-18T15:48:13.198Z,49.25
2023-04-18T15:50:41.906Z,49.38
2023-04-18T15:53:08.937Z,49.84
2023-04-18T15:55:36.118Z,49.95
2023-04-18T15:58:03.563Z,49.71
2023-04-18T16:00:31.926Z,49.29
2023-04-18T16:02:59.248Z,49.13
2023-04-18T16:05:26.488Z,49.23
2023-04-18T16:07:56.070Z,49.65
2023-04-18T16:10:23.164Z,50.00
2023-04-18T16:12:50.340Z,50.55
2023-04-18T16:15:17.386Z,50.68
2023-04-18T16:17:46.152Z,50.77
2023-04-18T16:20:13.742Z,51.13
2023-04-18T16:22:41.022Z,51.71
2023-04-18T16:25:09.562Z,51.69
2023-04-18T16:27:36.754Z,51.72
2023-04-18T16:30:04.383Z,51.71
2023-04-18T16:32:31.565Z,52.07
2023-04-18T16:34:59.887Z,52.55
2023-04-18T16:37:27.225Z,52.49
2023-04-18T16:39:54.213Z,52.55
2023-04-18T16:42:21.568Z,52.76
2023-04-18T16:44:48.845Z,52.86
2023-04-18T16:47:16.150Z,53.78
2023-04-18T16:49:44.803Z,53.79
2023-04-18T16:52:13.784Z,53.90
2023-04-18T16:54:41.389Z,53.60
2023-04-18T16:57:08.753Z,53.99
2023-04-18T16:59:35.943Z,54.61
2023-04-18T17:02:03.350Z,54.39
2023-04-18T17:04:31.407Z,54.42
2023-04-18T17:06:58.695Z,54.59
2023-04-18T17:09:27.472Z,54.69
2023-04-18T17:11:54.696Z,54.73
2023-04-18T17:14:21.670Z,54.93
2023-04-18T17:16:50.674Z,54.96
2023-04-18T17:19:19.177Z,54.97
2023-04-18T17:21:46.541Z,55.08
2023-04-18T17:24:14.370Z,55.19
2023-04-18T17:26:42.944Z,55.45
2023-04-18T17:29:09.917Z,55.51
2023-04-18T17:31:37.294Z,55.59
2023-04-18T17:34:04.683Z,56.07
2023-04-18T17:36:31.997Z,56.33
2023-04-18T17:39:05.494Z,56.30
2023-04-18T17:41:39.085Z,56.65
2023-04-18T17:44:08.294Z,56.59
2023-04-18T17:46:35.885Z,57.22
2023-04-18T17:49:04.297Z,57.20
2023-04-18T17:51:32.737Z,57.80
2023-04-18T17:53:59.698Z,58.86
2023-04-18T17:56:27.371Z,58.36
2023-04-18T17:58:56.596Z,58.46
2023-04-18T18:01:28.671Z,58.25
2023-04-18T18:03:57.025Z,58.50
2023-04-18T18:06:24.387Z,58.13
2023-04-18T18:08:51.304Z,58.04
2023-04-18T18:11:18.674Z,58.10
2023-04-18T18:13:46.745Z,58.32
2023-04-18T18:16:14.186Z,58.55
2023-04-18T18:18:43.303Z,58.77
2023-04-18T18:21:11.490Z,58.49
2023-04-18T18:23:38.731Z,58.36
2023-04-18T18:26:06.666Z,58.15
2023-04-18T18:28:34.076Z,57.37
2023-04-18T18:31:01.392Z,56.97
2023-04-18T18:33:28.461Z,56.44
2023-04-18T18:35:58.571Z,55.99
2023-04-18T18:38:26.468Z,55.46
2023-04-18T18:40:56.098Z,54.97
2023-04-18T18:43:28.717Z,54.79
2023-04-18T18:45:59.364Z,54.42
2023-04-18T18:48:27.249Z,54.34
2023-04-18T18:50:56.368Z,54.18
2023-04-18T18:53:24.754Z,53.96
2023-04-18T18:55:52.041Z,53.95
2023-04-18T18:58:19.172Z,53.84
2023-04-18T19:00:47.228Z,54.17
2023-04-18T19:03:18.451Z,54.33
2023-04-18T19:05:46.186Z,54.51
2023-04-18T19:08:13.459Z,54.80
2023-04-18T19:10:42.356Z,54.66
2023-04-18T19:13:09.656Z,54.79
2023-04-18T19:15:37.148Z,55.19
2023-04-18T19:18:04.573Z,55.58
2023-04-18T19:20:33.876Z,55.82
2023-04-18T19:23:00.601Z,56.40
2023-04-18T19:25:27.968Z,56.47
2023-04-18T19:27:56.372Z,56.88
2023-04-18T19:30:24.481Z,57.37
2023-04-18T19:32:52.168Z,57.52
2023-04-18T19:35:19.595Z,57.54
2023-04-18T19:37:46.795Z,57.63
2023-04-18T19:40:14.432Z,57.56
2023-04-18T19:42:41.369Z,57.61
2023-04-18T19:45:12.073Z,58.09
2023-04-18T19:47:38.960Z,58.64
2023-04-18T19:50:07.986Z,59.15
2023-04-18T19:52:35.025Z,59.35
2023-04-18T19:55:02.345Z,59.96
2023-04-18T19:57:29.714Z,59.95
2023-04-18T19:59:57.036Z,60.19
2023-04-18T20:02:25.597Z,60.17
2023-04-18T20:04:53.105Z,60.50
2023-04-18T20:07:20.387Z,60.11
2023-04-18T20:09:47.613Z,60.30
2023-04-18T20:12:14.734Z,60.19
2023-04-18T20:14:42.037Z,60.90
2023-04-18T20:17:09.019Z,60.79
2023-04-18T20:19:37.968Z,61.02
2023-04-18T20:22:05.185Z,61.29
2023-04-18T20:24:34.680Z,61.46
2023-04-18T20:27:01.851Z,61.55
2023-04-18T20:29:31.321Z,61.67
2023-04-18T20:31:58.450Z,61.90
2023-04-18T20:34:25.602Z,61.97
2023-04-18T20:36:53.948Z,62.26
2023-04-18T20:39:21.247Z,62.02
2023-04-18T20:41:50.783Z,61.96
2023-04-18T20:44:22.322Z,62.12
2023-04-18T20:46:49.383Z,61.96
2023-04-18T20:49:16.788Z,61.98
2023-04-18T20:51:43.954Z,62.21
2023-04-18T20:54:12.756Z,62.47
2023-04-18T20:56:39.910Z,63.05
2023-04-18T20:59:07.251Z,63.52
2023-04-18T21:01:36.741Z,63.81
2023-04-18T21:04:05.042Z,63.72
2023-04-18T21:06:32.816Z,63.62
2023-04-18T21:09:00.211Z,63.54
2023-04-18T21:11:28.705Z,63.50
2023-04-18T21:13:55.902Z,63.31
2023-04-18T21:16:24.139Z,63.08
2023-04-18T21:18:51.361Z,63.05
2023-04-18T21:21:18.495Z,63.01
2023-04-18T21:23:45.964Z,63.23
2023-04-18T21:26:13.799Z,63.02
2023-04-18T21:28:56.620Z,62.93
2023-04-18T21:31:23.874Z,62.70
2023-04-18T21:33:55.048Z,62.80
2023-04-18T21:36:23.344Z,62.83
2023-04-18T21:38:52.438Z,62.95
2023-04-18T21:41:20.229Z,63.27
2023-04-18T21:43:47.832Z,63.39
2023-04-18T21:46:16.635Z,63.57
2023-04-18T21:48:45.734Z,63.91
2023-04-18T21:51:14.558Z,63.97
2023-04-18T21:53:42.631Z,63.68
2023-04-18T21:56:09.940Z,64.12
2023-04-18T21:58:37.658Z,64.35
2023-04-18T22:01:04.850Z,64.46
2023-04-18T22:03:35.125Z,64.81
2023-04-18T22:06:04.516Z,64.48
2023-04-18T22:08:33.886Z,64.28
2023-04-18T22:11:01.071Z,64.35
2023-04-18T22:13:30.315Z,64.59
2023-04-18T22:15:58.451Z,64.31
2023-04-18T22:18:39.263Z,64.32
2023-04-18T22:21:09.616Z,64.46
2023-04-18T22:23:38.006Z,64.71
2023-04-18T22:26:05.265Z,64.64
2023-04-18T22:28:37.905Z,64.54
2023-04-18T22:31:07.698Z,64.88
2023-04-18T22:33:36.777Z,64.96
2023-04-18T22:36:04.307Z,65.22
2023-04-18T22:38:31.560Z,65.15
2023-04-18T22:40:59.341Z,65.52
2023-04-18T22:43:29.538Z,65.56
2023-04-18T22:45:56.699Z,65.86
2023-04-18T22:48:24.235Z,66.08
2023-04-18T22:51:02.605Z,65.66
2023-04-18T22:53:30.309Z,65.80
2023-04-18T22:55:57.320Z,65.45
2023-04-18T22:58:24.614Z,65.78
2023-04-18T23:00:51.628Z,65.56
2023-04-18T23:03:19.076Z,66.03
2023-04-18T23:05:46.287Z,65.88
2023-04-18T23:08:14.916Z,66.07
2023-04-18T23:10:44.754Z,65.66
2023-04-18T23:13:13.609Z,65.77
2023-04-18T23:15:43.039Z,65.78
2023-04-18T23:18:15.250Z,65.83
2023-04-18T23:20:50.479Z,65.75
2023-04-18T23:23:22.820Z,65.76
2023-04-18T23:25:49.865Z,65.79
2023-04-18T23:28:20.932Z,65.97
2023-04-18T23:30:50.146Z,65.83
2023-04-18T23:33:22.300Z,65.96
2023-04-18T23:35:49.288Z,66.33
2023-04-18T23:38:20.479Z,66.37
2023-04-18T23:40:49.349Z,66.26
2023-04-18T23:43:21.717Z,66.29
2023-04-18T23:45:48.826Z,66.59
2023-04-18T23:48:16.214Z,66.56
2023-04-18T23:50:48.313Z,66.58
2023-04-18T23:53:17.078Z,66.49
2023-04-18T23:55:50.654Z,66.29
2023-04-18T23:58:18.374Z,66.47
